createdAt,value
2022-09-23T00:02:49.516Z,92572.69
2022-09-23T00:06:00.947Z,92576.16
2022-09-23T00:09:04.852Z,92578.25
2022-09-23T00:12:09.207Z,92568.72
2022-09-23T00:15:12.399Z,92574.66
2022-09-23T00:18:15.489Z,92561.13
2022-09-23T00:21:20.493Z,92561.56
2022-09-23T00:24:24.699Z,92564.38
2022-09-23T00:27:27.760Z,92563.09
2022-09-23T00:30:31.738Z,92563.59
2022-09-23T00:33:35.084Z,92571.78
2022-09-23T00:36:38.198Z,92563.72
2022-09-23T00:39:41.366Z,92556.00
2022-09-23T00:42:49.446Z,92558.22
2022-09-23T00:45:52.521Z,92558.97
2022-09-23T00:49:06.418Z,92552.72
2022-09-23T00:52:14.020Z,92555.81
2022-09-23T00:55:40.009Z,92554.84
2022-09-23T00:58:47.651Z,92552.28
2022-09-23T01:01:54.406Z,92548.41
2022-09-23T01:04:57.421Z,92541.31
2022-09-23T01:08:03.491Z,92540.69
2022-09-23T01:11:17.860Z,92541.97
2022-09-23T01:14:39.164Z,92539.84
2022-09-23T01:17:44.814Z,92542.00
2022-09-23T01:21:07.633Z,92550.38
2022-09-23T01:24:21.188Z,92552.75
2022-09-23T01:27:52.819Z,92538.06
2022-09-23T01:31:01.358Z,92539.09
2022-09-23T01:34:19.281Z,92541.81
2022-09-23T01:37:49.081Z,92535.66
2022-09-23T01:41:13.175Z,92533.44
2022-09-23T01:44:22.346Z,92519.47
2022-09-23T01:47:33.894Z,92527.22
2022-09-23T01:50:56.863Z,92523.66
2022-09-23T01:54:10.948Z,92514.53
2022-09-23T01:57:22.179Z,92514.44
2022-09-23T02:00:26.130Z,92504.97
2022-09-23T02:03:42.669Z,92507.44
2022-09-23T02:06:55.301Z,92515.38
2022-09-23T02:10:21.152Z,92516.88
2022-09-23T02:13:44.111Z,92519.69
2022-09-23T02:16:50.240Z,92513.44
2022-09-23T02:20:01.944Z,92506.31
2022-09-23T02:23:13.624Z,92509.34
2022-09-23T02:27:06.186Z,92500.41
2022-09-23T02:30:21.336Z,92493.13
2022-09-23T02:33:36.232Z,92498.56
2022-09-23T02:37:05.987Z,92492.69
2022-09-23T02:40:18.257Z,92486.22
2022-09-23T02:43:36.003Z,92476.34
2022-09-23T02:46:39.570Z,92469.78
2022-09-23T02:49:43.128Z,92472.19
2022-09-23T02:52:47.498Z,92463.78
2022-09-23T02:55:51.634Z,92462.22
2022-09-23T02:58:55.739Z,92449.59
2022-09-23T03:02:17.911Z,92450.56
2022-09-23T03:05:33.119Z,92447.66
2022-09-23T03:09:07.193Z,92444.81
2022-09-23T03:12:17.752Z,92431.19
2022-09-23T03:15:27.918Z,92428.63
2022-09-23T03:18:35.625Z,92427.03
2022-09-23T03:21:47.353Z,92423.72
2022-09-23T03:24:54.130Z,92405.03
2022-09-23T03:27:59.836Z,92414.34
2022-09-23T03:31:03.603Z,92408.44
2022-09-23T03:34:15.556Z,92414.03
2022-09-23T03:37:24.881Z,92404.09
2022-09-23T03:40:55.492Z,92400.34
2022-09-23T03:44:00.091Z,92399.84
2022-09-23T03:47:04.379Z,92405.16
2022-09-23T03:50:07.857Z,92390.56
2022-09-23T03:53:14.383Z,92392.31
2022-09-23T03:56:18.039Z,92376.50
2022-09-23T03:59:21.193Z,92389.97
2022-09-23T04:02:24.349Z,92380.16
2022-09-23T04:05:27.354Z,92376.34
2022-09-23T04:08:30.330Z,92372.69
2022-09-23T04:11:33.336Z,92368.72
2022-09-23T04:14:36.327Z,92373.34
2022-09-23T04:17:39.342Z,92368.13
2022-09-23T04:20:42.658Z,92365.56
2022-09-23T04:23:47.069Z,92360.66
2022-09-23T04:26:54.465Z,92358.16
2022-09-23T04:29:57.510Z,92358.16
2022-09-23T04:33:00.499Z,92355.09
2022-09-23T04:36:03.589Z,92356.03
2022-09-23T04:39:07.577Z,92349.84
2022-09-23T04:42:10.793Z,92345.84
2022-09-23T04:45:13.791Z,92335.97
2022-09-23T04:48:18.178Z,92329.88
2022-09-23T04:51:23.079Z,92334.47
2022-09-23T04:54:26.031Z,92323.06
2022-09-23T04:57:30.414Z,92311.78
2022-09-23T05:00:34.158Z,92307.53
2022-09-23T05:03:37.999Z,92304.84
2022-09-23T05:06:41.753Z,92293.69
2022-09-23T05:09:44.836Z,92296.59
2022-09-23T05:12:47.821Z,92286.03
2022-09-23T05:15:50.821Z,92281.06
2022-09-23T05:18:54.522Z,92275.81
2022-09-23T05:21:57.763Z,92276.63
2022-09-23T05:25:00.864Z,92271.84
2022-09-23T05:28:03.832Z,92271.09
2022-09-23T05:31:19.916Z,92264.84
2022-09-23T05:34:23.775Z,92257.03
2022-09-23T05:37:27.235Z,92243.50
2022-09-23T05:40:30.196Z,92248.19
2022-09-23T05:43:33.320Z,92248.84
2022-09-23T05:46:36.774Z,92239.06
2022-09-23T05:49:58.537Z,92234.34
2022-09-23T05:53:02.549Z,92228.63
2022-09-23T05:56:06.773Z,92225.22
2022-09-23T05:59:09.843Z,92213.69
2022-09-23T06:02:12.930Z,92213.81
2022-09-23T06:05:16.986Z,92207.81
2022-09-23T06:08:20.079Z,92204.41
2022-09-23T06:11:23.099Z,92202.50
2022-09-23T06:14:26.174Z,92203.00
2022-09-23T06:17:29.499Z,92200.97
2022-09-23T06:20:33.555Z,92198.06
2022-09-23T06:23:40.151Z,92194.38
2022-09-23T06:26:44.685Z,92192.84
2022-09-23T06:29:47.706Z,92191.84
2022-09-23T06:32:54.240Z,92191.19
2022-09-23T06:36:05.786Z,92188.41
2022-09-23T06:39:08.835Z,92180.91
2022-09-23T06:42:11.872Z,92184.50
2022-09-23T06:45:16.022Z,92175.84
2022-09-23T06:48:18.981Z,92173.44
2022-09-23T06:51:22.375Z,92169.88
2022-09-23T06:54:28.915Z,92167.47
2022-09-23T06:57:33.688Z,92159.50
2022-09-23T07:00:37.871Z,92162.53
2022-09-23T07:03:40.989Z,92163.41
2022-09-23T07:06:43.951Z,92161.75
2022-09-23T07:09:47.277Z,92161.31
2022-09-23T07:12:50.199Z,92159.56
2022-09-23T07:16:00.924Z,92156.25
2022-09-23T07:19:04.076Z,92154.88
2022-09-23T07:22:07.573Z,92143.44
2022-09-23T07:25:12.734Z,92149.53
2022-09-23T07:28:15.803Z,92140.16
2022-09-23T07:31:33.824Z,92135.81
2022-09-23T07:34:41.167Z,92130.25
2022-09-23T07:37:44.397Z,92126.53
2022-09-23T07:40:47.448Z,92130.25
2022-09-23T07:43:51.104Z,92129.59
2022-09-23T07:46:54.158Z,92127.44
2022-09-23T07:49:57.253Z,92123.38
2022-09-23T07:53:00.341Z,92119.22
2022-09-23T07:56:07.148Z,92111.47
2022-09-23T07:59:15.919Z,92114.78
2022-09-23T08:02:18.996Z,92106.88
2022-09-23T08:05:23.395Z,92105.22
2022-09-23T08:08:26.534Z,92103.28
2022-09-23T08:11:29.755Z,92096.94
2022-09-23T08:14:32.709Z,92095.00
2022-09-23T08:17:35.772Z,92092.59
2022-09-23T08:20:47.142Z,92093.06
2022-09-23T08:23:51.290Z,92081.50
2022-09-23T08:26:55.585Z,92074.13
2022-09-23T08:29:58.663Z,92075.81
2022-09-23T08:33:03.438Z,92073.09
2022-09-23T08:36:07.012Z,92068.75
2022-09-23T08:39:14.793Z,92062.28
2022-09-23T08:42:24.850Z,92072.91
2022-09-23T08:45:29.628Z,92070.38
2022-09-23T08:48:52.437Z,92054.28
2022-09-23T08:51:56.940Z,92052.44
2022-09-23T08:55:00.268Z,92049.19
2022-09-23T08:58:27.177Z,92050.84
2022-09-23T09:01:47.032Z,92046.69
2022-09-23T09:05:03.995Z,92050.50
2022-09-23T09:08:07.152Z,92053.91
2022-09-23T09:11:13.566Z,92040.19
2022-09-23T09:14:28.211Z,92042.59
2022-09-23T09:17:50.755Z,92039.78
2022-09-23T09:21:13.753Z,92049.38
2022-09-23T09:24:28.706Z,92043.97
2022-09-23T09:27:31.525Z,92041.41
2022-09-23T09:30:36.581Z,92046.28
2022-09-23T09:33:47.417Z,92046.09
2022-09-23T09:37:07.281Z,92040.69
2022-09-23T09:40:15.758Z,92032.78
2022-09-23T09:43:24.002Z,92040.50
2022-09-23T09:46:40.111Z,92039.78
2022-09-23T09:49:59.638Z,92043.72
2022-09-23T09:53:27.106Z,92053.47
2022-09-23T09:56:35.778Z,92047.88
2022-09-23T09:59:44.666Z,92047.28
2022-09-23T10:02:52.953Z,92043.66
2022-09-23T10:05:59.634Z,92043.88
2022-09-23T10:09:02.850Z,92044.41
2022-09-23T10:12:19.017Z,92039.66
2022-09-23T10:15:34.555Z,92046.56
2022-09-23T10:18:51.909Z,92038.47
2022-09-23T10:21:57.555Z,92035.19
2022-09-23T10:25:08.589Z,92031.88
2022-09-23T10:28:39.288Z,92035.19
2022-09-23T10:31:42.379Z,92029.34
2022-09-23T10:34:47.646Z,92025.97
2022-09-23T10:37:55.748Z,92029.75
2022-09-23T10:41:17.121Z,92029.69
2022-09-23T10:44:59.554Z,92031.47
2022-09-23T10:48:50.939Z,92031.38
2022-09-23T10:52:16.716Z,92030.41
2022-09-23T10:56:02.257Z,92042.38
2022-09-23T10:59:10.758Z,92032.72
2022-09-23T11:02:45.203Z,92033.19
2022-09-23T11:06:19.503Z,92048.66
2022-09-23T11:09:41.096Z,92040.03
2022-09-23T11:13:19.285Z,92050.97
2022-09-23T11:16:45.772Z,92045.44
2022-09-23T11:20:26.765Z,92052.97
2022-09-23T11:24:02.719Z,92053.63
2022-09-23T11:27:19.938Z,92042.81
2022-09-23T11:30:23.102Z,92036.84
2022-09-23T11:33:54.368Z,92043.44
2022-09-23T11:37:09.788Z,92053.41
2022-09-23T11:40:28.365Z,92046.63
2022-09-23T11:43:37.884Z,92047.06
2022-09-23T11:47:04.293Z,92044.28
2022-09-23T11:50:42.740Z,92046.41
2022-09-23T11:54:02.596Z,92051.47
2022-09-23T11:57:11.189Z,92046.06
2022-09-23T12:00:27.164Z,92048.22
2022-09-23T12:03:48.715Z,92052.09
2022-09-23T12:07:23.488Z,92052.59
2022-09-23T12:11:07.729Z,92058.72
2022-09-23T12:14:44.692Z,92053.19
2022-09-23T12:18:13.185Z,92050.00
2022-09-23T12:21:57.192Z,92041.94
2022-09-23T12:25:24.369Z,92060.63
2022-09-23T12:28:36.660Z,92062.56
2022-09-23T12:31:43.039Z,92069.97
2022-09-23T12:34:52.533Z,92061.91
2022-09-23T12:37:56.235Z,92067.75
2022-09-23T12:41:01.147Z,92080.16
2022-09-23T12:44:16.123Z,92067.47
2022-09-23T12:47:21.856Z,92073.28
2022-09-23T12:51:09.271Z,92076.44
2022-09-23T12:54:23.921Z,92068.34
2022-09-23T12:57:35.760Z,92075.28
2022-09-23T13:00:38.947Z,92071.28
2022-09-23T13:04:17.049Z,92059.88
2022-09-23T13:07:30.666Z,92057.59
2022-09-23T13:10:39.516Z,92055.47
2022-09-23T13:13:46.404Z,92059.94
2022-09-23T13:16:50.380Z,92050.53
2022-09-23T13:20:22.446Z,92053.09
2022-09-23T13:23:32.221Z,92054.25
2022-09-23T13:26:37.330Z,92049.69
2022-09-23T13:29:45.935Z,92054.69
2022-09-23T13:32:59.729Z,92052.69
2022-09-23T13:36:04.676Z,92053.53
2022-09-23T13:39:28.197Z,92054.19
2022-09-23T13:42:31.561Z,92054.22
2022-09-23T13:45:41.771Z,92053.28
2022-09-23T13:48:46.948Z,92049.06
2022-09-23T13:51:54.728Z,92046.31
2022-09-23T13:54:59.707Z,92049.38
2022-09-23T13:58:21.026Z,92051.53
2022-09-23T14:01:35.757Z,92051.38
2022-09-23T14:04:40.441Z,92052.59
2022-09-23T14:07:43.913Z,92052.50
2022-09-23T14:10:47.962Z,92058.34
2022-09-23T14:13:54.808Z,92063.53
2022-09-23T14:16:58.846Z,92057.69
2022-09-23T14:20:01.960Z,92055.69
2022-09-23T14:23:12.609Z,92056.53
2022-09-23T14:26:15.883Z,92051.09
2022-09-23T14:29:31.733Z,92038.50
2022-09-23T14:32:34.951Z,92046.47
2022-09-23T14:35:45.252Z,92033.84
2022-09-23T14:38:51.763Z,92031.59
2022-09-23T14:41:54.857Z,92027.63
2022-09-23T14:44:57.912Z,92027.38
2022-09-23T14:48:06.741Z,92032.78
2022-09-23T14:51:16.721Z,92031.88
2022-09-23T14:54:51.453Z,92028.88
2022-09-23T14:58:04.039Z,92021.31
2022-09-23T15:01:25.633Z,92016.31
2022-09-23T15:04:31.985Z,92010.66
2022-09-23T15:07:37.857Z,92021.25
2022-09-23T15:10:41.540Z,92015.59
2022-09-23T15:13:50.080Z,92020.31
2022-09-23T15:16:54.218Z,92014.97
2022-09-23T15:20:00.480Z,92020.69
2022-09-23T15:23:03.551Z,92007.94
2022-09-23T15:26:11.206Z,92004.84
2022-09-23T15:29:14.192Z,92016.13
2022-09-23T15:32:17.329Z,92005.69
2022-09-23T15:35:22.940Z,92007.75
2022-09-23T15:38:27.843Z,92017.22
2022-09-23T15:41:33.659Z,92013.69
2022-09-23T15:44:38.617Z,92016.22
2022-09-23T15:47:41.733Z,92019.44
2022-09-23T15:50:47.942Z,92014.59
2022-09-23T15:53:51.258Z,92018.38
2022-09-23T15:56:54.449Z,92015.69
2022-09-23T15:59:58.984Z,92028.84
2022-09-23T16:03:01.965Z,92025.44
2022-09-23T16:06:06.522Z,92031.22
2022-09-23T16:09:11.147Z,92031.63
2022-09-23T16:12:14.416Z,92032.81
2022-09-23T16:15:22.710Z,92042.28
2022-09-23T16:18:25.740Z,92033.88
2022-09-23T16:21:29.523Z,92041.72
2022-09-23T16:24:32.585Z,92031.19
2022-09-23T16:27:35.566Z,92036.78
2022-09-23T16:30:38.584Z,92025.53
2022-09-23T16:33:41.854Z,92036.00
2022-09-23T16:36:45.098Z,92032.81
2022-09-23T16:39:50.583Z,92037.75
2022-09-23T16:42:55.602Z,92023.78
2022-09-23T16:45:58.891Z,92023.78
2022-09-23T16:49:02.164Z,92037.03
2022-09-23T16:52:05.166Z,92034.41
2022-09-23T16:55:09.358Z,92020.69
2022-09-23T16:58:12.911Z,92024.25
2022-09-23T17:01:46.221Z,92030.97
2022-09-23T17:04:49.408Z,92026.50
2022-09-23T17:07:52.540Z,92029.47
2022-09-23T17:10:58.962Z,92024.44
2022-09-23T17:14:01.954Z,92025.94
2022-09-23T17:17:05.126Z,92032.09
2022-09-23T17:20:08.583Z,92023.19
2022-09-23T17:23:11.620Z,92022.72
2022-09-23T17:26:15.719Z,92025.53
2022-09-23T17:29:18.765Z,92026.81
2022-09-23T17:32:21.862Z,92017.13
2022-09-23T17:35:24.892Z,92020.63
2022-09-23T17:38:29.574Z,92024.28
2022-09-23T17:41:32.454Z,92020.88
2022-09-23T17:44:36.816Z,92031.16
2022-09-23T17:47:41.854Z,92023.53
2022-09-23T17:50:53.989Z,92020.63
2022-09-23T17:53:56.992Z,92017.00
2022-09-23T17:57:00.706Z,92021.44
2022-09-23T18:03:15.501Z,92031.41
2022-09-23T18:06:21.166Z,92027.03
2022-09-23T18:09:24.817Z,92026.63
2022-09-23T18:12:27.939Z,92027.28
2022-09-23T18:15:31.501Z,92025.19
2022-09-23T18:18:34.576Z,92027.13
2022-09-23T18:21:40.802Z,92027.56
2022-09-23T18:24:43.835Z,92026.72
2022-09-23T18:27:46.837Z,92037.09
2022-09-23T18:30:54.772Z,92035.81
2022-09-23T18:33:58.762Z,92031.88
2022-09-23T18:37:01.809Z,92023.28
2022-09-23T18:43:09.155Z,92026.06
2022-09-23T18:46:15.034Z,92022.34
2022-09-23T18:49:36.243Z,92031.16
2022-09-23T18:52:39.242Z,92030.81
2022-09-23T18:55:42.258Z,92026.97
2022-09-23T18:58:49.582Z,92030.03
2022-09-23T19:01:55.904Z,92022.69
2022-09-23T19:04:59.061Z,92029.25
2022-09-23T19:08:02.416Z,92035.22
2022-09-23T19:11:07.525Z,92032.03
2022-09-23T19:14:11.767Z,92032.16
2022-09-23T19:17:17.960Z,92031.59
2022-09-23T19:20:22.894Z,92017.34
2022-09-23T19:23:27.534Z,92013.56
2022-09-23T19:26:39.350Z,92026.84
2022-09-23T19:29:42.403Z,92026.91
2022-09-23T19:32:45.960Z,92026.91
2022-09-23T19:35:51.841Z,92029.47
2022-09-23T19:38:56.469Z,92023.53
2022-09-23T19:41:59.879Z,92022.09
2022-09-23T19:45:02.887Z,92019.88
2022-09-23T19:48:07.132Z,92026.88
2022-09-23T19:51:10.227Z,92016.78
2022-09-23T19:54:19.626Z,92018.38
2022-09-23T19:57:22.653Z,92029.34
2022-09-23T20:00:25.692Z,92027.34
2022-09-23T20:06:33.352Z,92016.03
2022-09-23T20:09:35.978Z,92026.22
2022-09-23T20:12:39.160Z,92022.38
2022-09-23T20:15:43.279Z,92022.38
2022-09-23T20:18:47.338Z,92025.41
2022-09-23T20:22:10.386Z,92023.28
2022-09-23T20:25:14.300Z,92030.88
2022-09-23T20:28:17.269Z,92028.13
2022-09-23T20:31:24.351Z,92031.66
2022-09-23T20:34:30.443Z,92022.66
2022-09-23T20:37:33.712Z,92038.84
2022-09-23T20:40:39.033Z,92031.47
2022-09-23T20:43:42.233Z,92029.41
2022-09-23T20:46:48.862Z,92028.69
2022-09-23T20:49:54.016Z,92029.09
2022-09-23T20:52:57.697Z,92028.66
2022-09-23T20:56:00.787Z,92036.34
2022-09-23T20:59:05.056Z,92036.81
2022-09-23T21:02:08.959Z,92045.84
2022-09-23T21:05:12.043Z,92040.41
2022-09-23T21:08:16.567Z,92028.59
2022-09-23T21:11:20.763Z,92024.66
2022-09-23T21:14:24.000Z,92021.38
2022-09-23T21:17:27.511Z,92020.09
2022-09-23T21:20:30.533Z,92020.81
2022-09-23T21:23:35.843Z,92040.66
2022-09-23T21:26:39.044Z,92046.00
2022-09-23T21:29:42.104Z,92046.72
2022-09-23T21:32:45.216Z,92045.41
2022-09-23T21:35:48.759Z,92046.72
2022-09-23T21:38:52.173Z,92042.72
2022-09-23T21:41:55.154Z,92053.28
2022-09-23T21:44:58.330Z,92049.94
2022-09-23T21:48:01.841Z,92055.34
2022-09-23T21:51:06.687Z,92052.72
2022-09-23T21:54:14.635Z,92053.91
2022-09-23T21:57:17.626Z,92062.06
2022-09-23T22:00:20.682Z,92051.03
2022-09-23T22:03:23.994Z,92062.22
2022-09-23T22:06:28.633Z,92062.06
2022-09-23T22:09:31.606Z,92069.28
2022-09-23T22:12:34.602Z,92066.00
2022-09-23T22:15:38.059Z,92058.13
2022-09-23T22:18:41.278Z,92066.69
2022-09-23T22:21:46.219Z,92074.63
2022-09-23T22:24:49.778Z,92075.72
2022-09-23T22:28:11.007Z,92090.38
2022-09-23T22:31:32.436Z,92092.91
2022-09-23T22:34:49.561Z,92092.91
2022-09-23T22:37:53.365Z,92106.63
2022-09-23T22:40:56.473Z,92103.34
2022-09-23T22:44:03.923Z,92094.78
2022-09-23T22:47:07.566Z,92106.63
2022-09-23T22:50:11.960Z,92092.78
2022-09-23T22:53:18.339Z,92094.78
2022-09-23T22:56:22.093Z,92094.94
2022-09-23T22:59:26.460Z,92096.94
2022-09-23T23:02:29.526Z,92098.81
2022-09-23T23:05:33.762Z,92094.31
2022-09-23T23:08:39.318Z,92099.47
2022-09-23T23:11:44.735Z,92094.84
2022-09-23T23:14:49.754Z,92108.03
2022-09-23T23:17:54.400Z,92099.97
2022-09-23T23:21:16.440Z,92097.84
2022-09-23T23:24:22.227Z,92101.75
2022-09-23T23:27:28.451Z,92101.75
2022-09-23T23:30:36.145Z,92096.97
2022-09-23T23:33:39.475Z,92090.72
2022-09-23T23:36:44.393Z,92094.72
2022-09-23T23:39:48.722Z,92088.00
2022-09-23T23:42:52.586Z,92088.56
2022-09-23T23:45:57.055Z,92101.69
2022-09-23T23:49:01.242Z,92106.09
2022-09-23T23:52:04.839Z,92103.03
2022-09-23T23:55:08.840Z,92107.28
2022-09-23T23:58:12.211Z,92100.34
